Time;durP1;ratioP1;P1;durP2;ratioP2;P2;SDS_P1;SDS_P2;PMS_P1;PMS_P2;Temp;Humidity;BMP_temperature;BMP_pressure;BME280_temperature;BME280_humidity;BME280_pressure;Samples;Min_cycle;Max_cycle;Signal;HPM_P1;HPM_P2
2022/11/05 00:09:27;;;;;;;0.00;0.00;;;12.30;69.90;;;;;;4977282;28;20042;-72
2022/11/05 00:11:10;;;;;;;0.00;0.00;;;12.00;73.00;;;;;;4977696;28;20494;-70
2022/11/05 00:16:44;;;;;;;0.00;0.00;;;12.10;70.40;;;;;;4977716;28;20117;-70
2022/11/05 00:19:19;;;;;;;0.00;0.00;;;12.20;70.70;;;;;;4977448;28;20030;-70
2022/11/05 00:28:15;;;;;;;0.00;0.00;;;12.30;68.60;;;;;;4977584;28;20046;-70
2022/11/05 00:34:14;;;;;;;0.00;0.00;;;12.50;66.20;;;;;;4977545;28;20114;-70
2022/11/05 00:36:49;;;;;;;0.00;0.00;;;12.60;68.10;;;;;;4977318;28;20035;-70
2022/11/05 00:45:49;;;;;;;0.00;0.00;;;12.80;65.80;;;;;;4981237;28;20042;-71
2022/11/05 00:51:09;;;;;;;0.00;0.00;;;12.70;66.00;;;;;;4981176;28;20438;-71
2022/11/05 00:53:44;;;;;;;0.00;0.00;;;12.70;66.10;;;;;;4980851;28;20035;-71
2022/11/05 00:56:18;;;;;;;0.00;0.00;;;12.70;67.00;;;;;;4980784;28;20424;-71
2022/11/05 00:58:55;;;;;;;0.00;0.00;;;12.60;67.40;;;;;;4963500;28;20090;-71
2022/11/05 01:01:21;;;;;;;0.00;0.00;;;12.50;68.20;;;;;;4980665;28;20045;-70
2022/11/05 01:11:11;;;;;;;0.00;0.00;;;12.30;72.00;;;;;;4980890;28;20038;-70
2022/11/05 01:13:55;;;;;;;0.00;0.00;;;12.00;69.00;;;;;;4980359;28;20148;-70
2022/11/05 01:16:31;;;;;;;0.00;0.00;;;11.90;71.50;;;;;;4980339;28;20097;-70
2022/11/05 01:22:18;;;;;;;0.00;0.00;;;12.00;68.20;;;;;;4980576;28;20125;-70
2022/11/05 01:24:53;;;;;;;0.10;0.10;;;12.00;67.90;;;;;;4963238;28;20074;-70
2022/11/05 01:27:28;;;;;;;0.00;0.00;;;12.00;68.60;;;;;;4980213;28;20031;-71
2022/11/05 01:33:15;;;;;;;0.00;0.00;;;12.00;68.30;;;;;;4980435;28;20101;-71
2022/11/05 01:35:50;;;;;;;0.00;0.00;;;12.10;67.30;;;;;;4980059;28;20104;-71
2022/11/05 01:38:25;;;;;;;0.00;0.00;;;12.20;66.30;;;;;;4963014;28;20486;-70
2022/11/05 01:40:52;;;;;;;0.00;0.00;;;12.20;66.70;;;;;;4979883;28;20442;-70
2022/11/05 01:44:04;;;;;;;0.00;0.00;;;12.20;65.70;;;;;;4980013;28;20065;-70
2022/11/05 01:46:43;;;;;;;0.00;0.00;;;12.30;64.60;;;;;;4882981;29;20056;-70
2022/11/05 01:49:50;;;;;;;0.00;0.00;;;12.30;64.30;;;;;;4882819;29;20132;-70
2022/11/05 01:52:43;;;;;;;0.17;0.17;;;12.30;65.10;;;;;;4845356;29;20049;-70
2022/11/05 01:55:24;;;;;;;0.00;0.00;;;12.30;64.50;;;;;;4845887;29;20052;-70
2022/11/05 01:58:01;;;;;;;0.00;0.00;;;12.30;64.40;;;;;;4845761;29;20441;-70
2022/11/05 02:04:03;;;;;;;0.10;0.03;;;12.40;64.80;;;;;;4845722;29;20454;-70
2022/11/05 02:07:18;;;;;;;0.00;0.00;;;12.50;64.00;;;;;;4845272;29;20065;-70
2022/11/05 02:13:47;;;;;;;0.00;0.00;;;12.50;63.20;;;;;;4845863;29;20049;-70
2022/11/05 02:16:49;;;;;;;0.00;0.00;;;12.60;63.60;;;;;;4852095;29;20042;-70
2022/11/05 02:23:24;;;;;;;0.00;0.00;;;12.70;62.20;;;;;;4901282;29;20039;-70
2022/11/05 02:26:36;;;;;;;0.00;0.00;;;12.60;63.70;;;;;;4863697;29;20076;-70
2022/11/05 02:29:48;;;;;;;0.00;0.00;;;12.50;62.90;;;;;;4900847;29;20064;-70
2022/11/05 02:32:53;;;;;;;0.00;0.00;;;12.50;66.00;;;;;;4900917;29;20047;-70
2022/11/05 02:36:05;;;;;;;0.00;0.00;;;12.40;66.80;;;;;;4900808;29;20041;-70
2022/11/05 02:39:21;;;;;;;0.00;0.00;;;12.30;65.00;;;;;;4900883;29;20108;-70
2022/11/05 02:42:14;;;;;;;0.10;0.10;;;12.30;62.40;;;;;;4909859;29;20039;-70
2022/11/05 02:45:09;;;;;;;0.00;0.00;;;12.40;64.80;;;;;;4959495;29;20033;-70
2022/11/05 02:48:36;;;;;;;0.00;0.00;;;12.30;64.30;;;;;;4959279;29;20023;-70
2022/11/05 02:54:45;;;;;;;0.00;0.00;;;12.30;63.90;;;;;;4900505;29;20043;-70
2022/11/05 02:57:21;;;;;;;0.20;0.20;;;12.10;65.90;;;;;;4884630;29;20029;-70
2022/11/05 03:00:44;;;;;;;0.00;0.00;;;12.00;65.30;;;;;;4900278;29;20097;-70
2022/11/05 03:03:42;;;;;;;0.00;0.00;;;12.00;64.70;;;;;;4879342;29;20041;-70
2022/11/05 03:06:41;;;;;;;0.08;0.00;;;11.90;65.40;;;;;;4894990;29;20088;-70
2022/11/05 03:09:53;;;;;;;0.00;0.00;;;11.80;66.20;;;;;;4884356;29;20044;-70
2022/11/05 03:12:44;;;;;;;0.00;0.00;;;11.90;63.30;;;;;;4900042;29;20036;-70
2022/11/05 03:15:47;;;;;;;0.00;0.00;;;12.10;62.60;;;;;;4900097;29;20043;-70
2022/11/05 03:22:38;;;;;;;0.00;0.00;;;12.40;61.70;;;;;;4844756;29;20125;-70
2022/11/05 03:25:18;;;;;;;0.00;0.00;;;12.50;60.30;;;;;;4844064;29;20038;-70
2022/11/05 03:27:57;;;;;;;0.00;0.00;;;12.50;60.60;;;;;;4844184;29;20693;-70
2022/11/05 03:33:47;;;;;;;0.00;0.00;;;12.60;60.70;;;;;;4844442;29;20115;-70
2022/11/05 03:36:27;;;;;;;0.00;0.00;;;12.50;59.90;;;;;;4852863;29;20124;-70
2022/11/05 03:42:19;;;;;;;0.00;0.00;;;12.50;60.10;;;;;;4978246;28;20021;-70
2022/11/05 03:45:08;;;;;;;0.00;0.00;;;12.50;59.70;;;;;;4977759;28;20035;-70
2022/11/05 03:47:46;;;;;;;0.00;0.00;;;12.40;60.80;;;;;;4977727;28;20039;-70
2022/11/05 03:50:40;;;;;;;0.00;0.00;;;12.50;59.70;;;;;;4977746;28;20027;-70
2022/11/05 03:53:21;;;;;;;0.00;0.00;;;12.50;59.20;;;;;;4960463;28;20415;-70
2022/11/05 03:56:22;;;;;;;0.00;0.00;;;12.60;58.90;;;;;;4977657;28;20050;-70
2022/11/05 03:59:16;;;;;;;0.00;0.00;;;12.70;59.90;;;;;;4977332;28;20035;-70
2022/11/05 04:01:42;;;;;;;0.00;0.00;;;12.70;59.50;;;;;;4960502;28;20042;-70
2022/11/05 04:04:20;;;;;;;0.20;0.00;;;12.60;59.70;;;;;;4977554;28;20035;-70
2022/11/05 04:25:00;;;;;;;0.10;0.10;;;12.30;60.50;;;;;;4981646;28;20098;-70
2022/11/05 04:27:35;;;;;;;0.00;0.00;;;12.30;60.50;;;;;;4981188;28;20044;-70
2022/11/05 04:30:19;;;;;;;0.00;0.00;;;12.30;60.30;;;;;;4981400;28;20379;-70
2022/11/05 04:33:12;;;;;;;0.00;0.00;;;12.30;59.30;;;;;;4981258;28;20023;-70
2022/11/05 04:35:49;;;;;;;0.00;0.00;;;12.30;59.30;;;;;;4981636;28;20027;-70
2022/11/05 04:38:24;;;;;;;0.00;0.00;;;12.30;59.30;;;;;;4981166;28;20419;-70
2022/11/05 04:40:50;;;;;;;0.00;0.00;;;12.30;59.20;;;;;;4963832;28;20070;-70
2022/11/05 04:43:31;;;;;;;0.00;0.00;;;12.40;59.80;;;;;;4981101;28;20459;-70
2022/11/05 04:46:06;;;;;;;0.00;0.00;;;12.30;59.50;;;;;;4980969;28;20038;-70
2022/11/05 04:48:40;;;;;;;0.00;0.00;;;12.30;59.60;;;;;;4980931;28;20450;-70
2022/11/05 04:54:44;;;;;;;0.00;0.00;;;12.20;60.30;;;;;;4981132;28;20331;-70
2022/11/05 04:57:18;;;;;;;0.00;0.00;;;12.20;60.30;;;;;;4980760;28;20423;-70
2022/11/05 05:03:06;;;;;;;0.00;0.00;;;12.20;60.80;;;;;;4981027;28;20025;-70
2022/11/05 05:06:31;;;;;;;0.00;0.00;;;12.10;59.70;;;;;;4980478;28;20134;-70
2022/11/05 05:09:56;;;;;;;0.00;0.00;;;12.10;59.30;;;;;;4980436;28;20035;-70
2022/11/05 05:13:21;;;;;;;0.00;0.00;;;12.20;59.70;;;;;;4980591;28;20038;-70
2022/11/05 05:16:46;;;;;;;0.00;0.00;;;12.20;59.40;;;;;;4980513;28;20030;-70
2022/11/05 05:22:54;;;;;;;0.00;0.00;;;12.20;59.10;;;;;;4980396;28;20154;-70
2022/11/05 05:25:30;;;;;;;0.00;0.00;;;12.30;58.00;;;;;;4980259;28;20039;-70
2022/11/05 05:28:04;;;;;;;0.00;0.00;;;12.30;58.30;;;;;;4979320;28;20023;-70
2022/11/05 05:34:01;;;;;;;0.00;0.00;;;12.40;57.40;;;;;;4980443;28;20033;-70
2022/11/05 05:36:36;;;;;;;0.00;0.00;;;12.30;58.30;;;;;;4979994;28;20022;-70
2022/11/05 05:42:32;;;;;;;0.00;0.00;;;12.40;56.70;;;;;;4980324;28;20427;-70
2022/11/05 05:45:07;;;;;;;0.00;0.00;;;12.40;57.70;;;;;;4979903;28;20300;-70
2022/11/05 05:47:42;;;;;;;0.00;0.00;;;12.40;58.20;;;;;;4962557;28;20063;-70
2022/11/05 05:53:39;;;;;;;0.00;0.00;;;12.40;57.40;;;;;;4980200;28;20311;-70
2022/11/05 05:56:19;;;;;;;0.00;0.00;;;12.40;56.40;;;;;;4979845;28;20030;-70
2022/11/05 05:58:55;;;;;;;0.00;0.00;;;12.50;57.20;;;;;;4979818;28;20315;-70
2022/11/05 06:01:20;;;;;;;;;;;12.60;55.80;;;;;;4979918;28;20042;-70
2022/11/05 06:04:01;;;;;;;0.00;0.00;;;12.60;56.00;;;;;;4979683;28;19917;-70
2022/11/05 06:06:36;;;;;;;0.00;0.00;;;12.60;55.50;;;;;;4979141;28;20051;-70
2022/11/05 06:12:24;;;;;;;0.00;0.00;;;12.60;56.20;;;;;;4979854;28;20029;-70
2022/11/05 06:14:58;;;;;;;0.00;0.00;;;12.60;55.70;;;;;;4979386;28;20113;-70
2022/11/05 06:17:33;;;;;;;0.10;0.10;;;12.60;56.60;;;;;;4979361;28;20062;-70
2022/11/05 06:23:21;;;;;;;0.00;0.00;;;12.60;56.80;;;;;;4979577;28;20335;-70
2022/11/05 06:26:04;;;;;;;0.00;0.00;;;12.60;55.70;;;;;;4979190;28;20031;-70
2022/11/05 06:28:40;;;;;;;0.00;0.00;;;12.60;55.20;;;;;;4979145;28;20043;-70
2022/11/05 06:34:37;;;;;;;0.00;0.00;;;12.70;56.80;;;;;;4979220;28;20319;-70
2022/11/05 06:37:12;;;;;;;0.00;0.00;;;12.70;57.80;;;;;;4978955;28;20126;-70
2022/11/05 06:39:47;;;;;;;0.00;0.00;;;12.70;56.00;;;;;;4977835;28;20102;-70
2022/11/05 06:42:13;;;;;;;0.00;0.00;;;12.80;55.70;;;;;;4978896;28;20023;-70
2022/11/05 06:45:28;;;;;;;0.00;0.00;;;12.80;56.10;;;;;;4978959;28;20112;-70
2022/11/05 06:48:06;;;;;;;0.00;0.00;;;12.90;55.80;;;;;;4978689;28;20034;-70
2022/11/05 06:50:32;;;;;;;0.00;0.00;;;12.90;56.30;;;;;;4961497;28;20038;-70
2022/11/05 06:53:07;;;;;;;0.00;0.00;;;12.90;55.30;;;;;;4978665;28;20320;-70
2022/11/05 06:55:43;;;;;;;0.00;0.00;;;12.90;56.20;;;;;;4978574;28;20030;-70
2022/11/05 06:58:18;;;;;;;0.00;0.00;;;12.90;55.60;;;;;;4978530;28;20026;-70
2022/11/05 07:04:15;;;;;;;0.00;0.00;;;12.90;57.00;;;;;;4978730;28;20311;-70
2022/11/05 07:07:06;;;;;;;0.00;0.00;;;12.80;56.80;;;;;;4977881;28;20055;-70
2022/11/05 07:12:53;;;;;;;0.00;0.00;;;12.90;55.80;;;;;;4978702;28;20073;-70
2022/11/05 07:15:28;;;;;;;0.20;0.13;;;13.00;55.60;;;;;;4978258;28;20031;-70
2022/11/05 07:18:06;;;;;;;0.00;0.00;;;13.00;55.20;;;;;;4978224;28;20017;-70
2022/11/05 07:20:32;;;;;;;0.00;0.00;;;13.00;55.50;;;;;;4978029;28;20035;-70
2022/11/05 07:23:13;;;;;;;0.00;0.00;;;13.10;55.40;;;;;;4978218;28;20023;-70
2022/11/05 07:25:48;;;;;;;0.00;0.00;;;13.10;54.20;;;;;;4978043;28;20106;-70
2022/11/05 07:28:23;;;;;;;0.15;0.08;;;13.10;56.50;;;;;;4977999;28;20022;-70
2022/11/05 07:30:49;;;;;;;0.00;0.00;;;13.10;55.90;;;;;;4977881;28;20103;-70
2022/11/05 07:33:33;;;;;;;0.00;0.00;;;13.20;55.80;;;;;;4978098;28;20049;-70
2022/11/05 07:36:08;;;;;;;0.00;0.00;;;13.20;56.70;;;;;;4977930;28;20030;-70
2022/11/05 07:38:42;;;;;;;0.00;0.00;;;13.00;56.70;;;;;;4978071;28;20027;-70
2022/11/05 07:44:45;;;;;;;0.00;0.00;;;13.10;55.90;;;;;;4978199;28;20029;-70
2022/11/05 07:47:19;;;;;;;0.00;0.00;;;13.20;55.50;;;;;;4977764;28;20097;-70
2022/11/05 07:53:21;;;;;;;0.00;0.00;;;13.10;59.10;;;;;;4978290;28;20054;-70
2022/11/05 07:55:57;;;;;;;0.00;0.00;;;13.00;56.60;;;;;;4977485;28;20023;-70
2022/11/05 07:58:34;;;;;;;0.10;0.10;;;13.00;57.00;;;;;;4977699;28;20034;-70
2022/11/05 08:01:55;;;;;;;0.20;0.10;;;13.00;59.90;;;;;;4977760;28;20038;-70
2022/11/05 08:04:33;;;;;;;0.13;0.10;;;12.80;60.40;;;;;;4977678;28;20107;-70
2022/11/05 08:07:08;;;;;;;0.00;0.00;;;12.80;62.50;;;;;;4977074;28;20321;-70
2022/11/05 08:09:43;;;;;;;0.00;0.00;;;12.80;63.20;;;;;;4977564;28;20035;-70
2022/11/05 08:12:09;;;;;;;0.00;0.00;;;12.70;65.40;;;;;;4977507;28;20327;-70
2022/11/05 08:14:53;;;;;;;0.00;0.00;;;12.60;68.80;;;;;;4960399;28;20027;-70
2022/11/05 08:17:28;;;;;;;0.00;0.00;;;12.70;67.60;;;;;;4977534;28;20055;-70
2022/11/05 08:23:29;;;;;;;0.10;0.10;;;12.90;71.00;;;;;;4977784;28;20038;-70
2022/11/05 08:26:04;;;;;;;0.00;0.00;;;12.90;67.70;;;;;;4977411;28;20027;-70
2022/11/05 08:28:38;;;;;;;0.00;0.00;;;12.90;67.80;;;;;;4977341;28;20027;-70
2022/11/05 08:34:42;;;;;;;0.00;0.00;;;13.10;65.30;;;;;;4977564;28;20327;-70
2022/11/05 08:37:16;;;;;;;0.00;0.00;;;13.20;67.40;;;;;;4977314;28;20027;-70
2022/11/05 08:43:15;;;;;;;0.00;0.00;;;13.30;67.20;;;;;;4977641;28;20041;-70
2022/11/05 08:45:53;;;;;;;0.00;0.00;;;13.30;65.70;;;;;;4977279;28;20089;-70
2022/11/05 08:48:28;;;;;;;0.00;0.00;;;13.40;66.30;;;;;;4977185;28;20118;-70
2022/11/05 08:50:54;;;;;;;0.00;0.00;;;13.50;67.50;;;;;;4977146;28;20027;-70
2022/11/05 08:53:38;;;;;;;0.00;0.00;;;13.60;69.70;;;;;;4977224;28;20041;-70
2022/11/05 08:56:12;;;;;;;0.00;0.00;;;13.70;66.90;;;;;;4960187;28;20030;-70
2022/11/05 08:58:49;;;;;;;0.00;0.00;;;13.70;67.40;;;;;;4977106;28;20035;-70
2022/11/05 09:01:14;;;;;;;0.00;0.00;;;14.00;67.50;;;;;;4977160;28;20070;-70
2022/11/05 09:03:55;;;;;;;0.03;0.03;;;14.20;65.40;;;;;;4979550;28;20061;-70
2022/11/05 09:07:21;;;;;;;0.10;0.10;;;14.30;63.50;;;;;;4980207;28;20039;-70
2022/11/05 09:13:21;;;;;;;0.00;0.00;;;14.80;65.30;;;;;;4980877;28;20042;-70
2022/11/05 09:15:59;;;;;;;0.00;0.00;;;15.10;62.20;;;;;;4980487;28;20034;-71
2022/11/05 09:18:34;;;;;;;0.00;0.00;;;15.80;63.30;;;;;;4980437;28;20037;-71
2022/11/05 09:24:41;;;;;;;0.00;0.00;;;17.50;57.90;;;;;;4980473;28;20033;-69
2022/11/05 09:27:15;;;;;;;0.00;0.00;;;17.70;58.30;;;;;;4980283;28;20027;-69
2022/11/05 09:29:50;;;;;;;0.10;0.10;;;17.30;57.20;;;;;;4980185;28;20038;-69
2022/11/05 09:32:18;;;;;;;1.15;0.38;;;17.60;55.60;;;;;;4980245;28;20034;-69
2022/11/05 09:34:55;;;;;;;0.38;0.10;;;17.80;55.40;;;;;;4980242;28;20031;-69
2022/11/05 09:37:30;;;;;;;0.32;0.20;;;17.50;58.10;;;;;;4980108;28;20026;-69
2022/11/05 09:43:58;;;;;;;0.00;0.00;;;17.70;56.70;;;;;;4980179;28;20029;-69
2022/11/05 09:47:03;;;;;;;0.00;0.00;;;17.90;56.00;;;;;;4978406;28;20122;-69
2022/11/05 09:53:04;;;;;;;0.00;0.00;;;18.30;57.30;;;;;;4902026;29;20104;-69
2022/11/05 09:55:42;;;;;;;0.00;0.00;;;18.00;55.40;;;;;;4901639;29;20056;-69
2022/11/05 09:58:45;;;;;;;0.00;0.00;;;17.80;59.20;;;;;;4901530;29;20032;-69
2022/11/05 10:02:01;;;;;;;0.00;0.00;;;18.10;53.70;;;;;;4901732;29;20037;-69
2022/11/05 10:04:42;;;;;;;0.00;0.00;;;18.40;56.60;;;;;;4901523;29;20032;-69
2022/11/05 10:07:37;;;;;;;6.03;0.40;;;19.00;52.20;;;;;;4900751;29;20079;-69
2022/11/05 10:14:14;;;;;;;0.00;0.00;;;19.80;52.30;;;;;;4901335;29;20040;-69
2022/11/05 10:17:05;;;;;;;0.00;0.00;;;20.40;52.20;;;;;;4882278;29;20032;-69
2022/11/05 10:23:17;;;;;;;0.08;0.08;;;20.90;51.90;;;;;;4901553;29;20028;-69
2022/11/05 10:26:23;;;;;;;0.30;0.30;;;21.10;50.10;;;;;;4922495;28;20384;-69
2022/11/05 10:28:58;;;;;;;0.00;0.00;;;21.40;53.70;;;;;;4968168;28;20094;-69
2022/11/05 10:31:27;;;;;;;0.25;0.05;;;21.60;51.60;;;;;;4962051;28;20058;-69
2022/11/05 10:34:05;;;;;;;0.00;0.00;;;21.30;50.40;;;;;;4979071;28;20033;-69
2022/11/05 10:36:40;;;;;;;0.00;0.00;;;21.40;52.70;;;;;;4978948;28;20086;-69
2022/11/05 10:43:25;;;;;;;0.00;0.00;;;21.80;50.80;;;;;;4978935;28;20166;-69
2022/11/05 10:46:27;;;;;;;0.00;0.00;;;21.90;52.40;;;;;;4961710;28;20045;-69
2022/11/05 10:53:04;;;;;;;0.10;0.10;;;21.70;50.00;;;;;;4979138;28;20166;-69
2022/11/05 10:56:19;;;;;;;0.00;0.00;;;21.60;53.80;;;;;;4943831;28;20332;-69
2022/11/05 10:58:58;;;;;;;0.00;0.00;;;21.70;56.00;;;;;;4978722;28;20101;-69
2022/11/05 11:01:25;;;;;;;0.10;0.00;;;21.50;51.30;;;;;;4978506;28;20038;-69
2022/11/05 11:04:29;;;;;;;0.00;0.00;;;21.60;52.90;;;;;;4978470;28;20023;-69
2022/11/05 11:07:55;;;;;;;0.05;0.00;;;21.60;53.80;;;;;;4977984;28;20047;-69
2022/11/05 11:14:52;;;;;;;0.10;0.00;;;21.50;56.20;;;;;;4978587;28;20431;-69
2022/11/05 11:18:17;;;;;;;0.03;0.00;;;21.50;54.80;;;;;;4978313;28;20041;-69
2022/11/05 11:25:14;;;;;;;0.10;0.00;;;21.40;54.70;;;;;;4978374;28;20093;-69
2022/11/05 11:28:38;;;;;;;0.00;0.00;;;21.40;57.30;;;;;;4978062;28;20485;-69
2022/11/05 11:32:03;;;;;;;0.00;0.00;;;21.60;56.00;;;;;;4978185;28;20109;-69
2022/11/05 11:35:28;;;;;;;0.00;0.00;;;21.80;54.40;;;;;;4978054;28;20478;-69
2022/11/05 11:38:55;;;;;;;0.00;0.00;;;21.40;56.80;;;;;;4978001;28;20069;-69
2022/11/05 11:41:21;;;;;;;0.00;0.00;;;20.80;57.50;;;;;;4977965;28;20038;-69
2022/11/05 11:44:13;;;;;;;0.10;0.00;;;20.60;55.60;;;;;;4977937;28;20031;-69
2022/11/05 11:46:51;;;;;;;0.10;0.10;;;20.60;59.30;;;;;;4977902;28;20034;-69
2022/11/05 11:52:38;;;;;;;0.15;0.00;;;20.50;55.00;;;;;;4977894;28;20026;-69
2022/11/05 11:55:21;;;;;;;0.00;0.00;;;20.20;55.90;;;;;;4960647;28;20030;-69
2022/11/05 11:58:06;;;;;;;0.00;0.00;;;19.90;57.50;;;;;;4977754;28;20027;-69
2022/11/05 12:04:21;;;;;;;0.00;0.00;;;19.50;61.20;;;;;;4977929;28;20067;-69
2022/11/05 12:14:38;;;;;;;0.00;0.00;;;19.10;61.40;;;;;;4977599;28;20034;-69
2022/11/05 12:17:24;;;;;;;0.00;0.00;;;19.00;59.20;;;;;;4899314;29;20101;-69
2022/11/05 12:20:24;;;;;;;0.00;0.00;;;19.00;61.50;;;;;;4899335;29;20043;-69
2022/11/05 12:23:43;;;;;;;0.10;0.00;;;18.70;58.20;;;;;;4975591;28;20379;-69
2022/11/05 12:26:50;;;;;;;0.00;0.00;;;18.50;60.20;;;;;;4977498;28;20085;-69
2022/11/05 12:33:10;;;;;;;0.00;0.00;;;18.00;62.40;;;;;;4977771;28;20054;-69
2022/11/05 12:36:19;;;;;;;0.00;0.00;;;17.70;59.80;;;;;;4977602;28;20327;-69
2022/11/05 12:42:20;;;;;;;0.30;0.10;;;17.40;62.20;;;;;;4981260;28;20034;-69
2022/11/05 12:45:23;;;;;;;0.00;0.00;;;17.30;64.40;;;;;;4981110;28;20041;-69
2022/11/05 12:48:45;;;;;;;0.32;0.10;;;17.20;65.20;;;;;;4981064;28;20082;-69
2022/11/05 12:52:04;;;;;;;0.00;0.00;;;17.10;64.30;;;;;;4902850;29;20123;-69
2022/11/05 12:54:54;;;;;;;0.00;0.00;;;17.00;65.60;;;;;;4902909;29;20093;-69
2022/11/05 12:57:47;;;;;;;0.10;0.10;;;16.80;64.00;;;;;;4902716;29;20112;-69
2022/11/05 13:03:57;;;;;;;0.00;0.00;;;16.50;66.10;;;;;;4902660;29;20028;-69
2022/11/05 13:06:47;;;;;;;0.10;0.10;;;16.40;66.10;;;;;;4902460;29;20060;-69
2022/11/05 13:12:39;;;;;;;0.08;0.00;;;16.30;64.00;;;;;;4883864;29;20036;-69
2022/11/05 13:15:31;;;;;;;0.00;0.00;;;16.20;64.90;;;;;;4868193;29;20029;-69
2022/11/05 13:18:22;;;;;;;0.03;0.03;;;16.10;63.80;;;;;;4883535;29;20353;-69
2022/11/05 13:24:38;;;;;;;0.00;0.00;;;15.90;62.60;;;;;;4883857;29;20056;-70
2022/11/05 13:27:58;;;;;;;0.25;0.10;;;15.80;64.70;;;;;;4951663;29;20067;-70
2022/11/05 13:33:56;;;;;;;0.00;0.00;;;15.80;67.20;;;;;;4961193;29;20034;-70
2022/11/05 13:43:32;;;;;;;0.00;0.00;;;15.50;65.90;;;;;;4960865;29;20110;-70
2022/11/05 13:46:35;;;;;;;0.00;0.00;;;15.50;65.40;;;;;;4961071;29;20109;-70
2022/11/05 13:53:24;;;;;;;0.08;0.08;;;15.50;65.60;;;;;;4960974;29;20082;-69
2022/11/05 13:56:17;;;;;;;0.00;0.00;;;15.40;64.10;;;;;;4942273;29;20050;-69
2022/11/05 14:02:19;;;;;;;0.40;0.10;;;15.20;65.10;;;;;;4960769;29;20430;-69
2022/11/05 14:05:00;;;;;;;0.00;0.00;;;15.20;66.30;;;;;;4960068;29;20037;-69
2022/11/05 14:08:25;;;;;;;0.15;0.05;;;15.20;65.50;;;;;;4966857;28;20050;-69
2022/11/05 14:15:25;;;;;;;0.20;0.20;;;15.00;67.00;;;;;;4979461;28;20061;-69
2022/11/05 14:18:51;;;;;;;0.03;0.00;;;14.90;67.60;;;;;;4979426;28;20031;-69
2022/11/05 14:21:26;;;;;;;0.03;0.03;;;14.80;68.50;;;;;;4962102;28;20046;-69
2022/11/05 14:24:41;;;;;;;0.10;0.00;;;14.70;68.60;;;;;;4979303;28;20039;-69
2022/11/05 14:27:16;;;;;;;0.13;0.03;;;14.70;67.10;;;;;;4901071;29;20406;-69
2022/11/05 14:33:30;;;;;;;0.00;0.00;;;14.60;70.40;;;;;;4901400;29;20020;-69
2022/11/05 14:36:45;;;;;;;0.00;0.00;;;14.60;69.50;;;;;;4900923;29;20370;-69
2022/11/05 14:42:32;;;;;;;0.00;0.00;;;14.50;69.30;;;;;;4901264;29;20023;-70
2022/11/05 14:45:27;;;;;;;0.10;0.10;;;14.40;70.80;;;;;;4900740;29;20044;-71
2022/11/05 14:48:32;;;;;;;0.10;0.10;;;14.40;70.10;;;;;;4900707;29;20337;-71
2022/11/05 14:54:54;;;;;;;0.20;0.20;;;14.30;69.80;;;;;;4900663;29;20134;-71
2022/11/05 14:57:53;;;;;;;0.13;0.10;;;14.20;67.10;;;;;;4900605;29;20037;-71
2022/11/05 15:04:25;;;;;;;0.00;0.00;;;14.10;69.90;;;;;;4941222;28;20323;-71
2022/11/05 15:07:03;;;;;;;0.30;0.10;;;14.00;70.00;;;;;;4978246;28;20297;-71
2022/11/05 15:13:05;;;;;;;0.00;0.00;;;13.90;75.70;;;;;;4979108;28;20026;-71
2022/11/05 15:15:51;;;;;;;0.00;0.00;;;13.70;73.50;;;;;;4978302;28;20423;-71
2022/11/05 15:18:35;;;;;;;5.03;2.72;;;13.60;78.20;;;;;;4978289;28;20423;-71
2022/11/05 15:24:33;;;;;;;0.10;0.00;;;13.10;77.50;;;;;;4978458;28;20105;-71
2022/11/05 15:27:36;;;;;;;0.20;0.20;;;12.90;78.30;;;;;;4960852;28;20041;-71
2022/11/05 15:33:34;;;;;;;0.00;0.00;;;12.60;82.70;;;;;;4978402;28;20034;-71
2022/11/05 15:36:33;;;;;;;0.00;0.00;;;12.40;84.20;;;;;;4978040;28;20412;-71
2022/11/05 15:42:33;;;;;;;0.00;0.00;;;11.90;84.60;;;;;;4978297;28;20034;-71
2022/11/05 15:45:19;;;;;;;0.30;0.22;;;11.70;84.90;;;;;;4977837;28;20030;-71
2022/11/05 15:47:54;;;;;;;0.53;0.40;;;11.50;85.50;;;;;;4977694;28;20066;-70
2022/11/05 15:54:52;;;;;;;0.10;0.10;;;11.20;85.80;;;;;;4978058;28;20034;-71
2022/11/05 15:58:18;;;;;;;0.00;0.00;;;11.00;86.40;;;;;;4977613;28;20027;-70
2022/11/05 16:00:47;;;;;;;0.20;0.20;;;10.80;86.60;;;;;;4977627;28;20041;-70
2022/11/05 16:06:49;;;;;;;0.00;0.00;;;10.50;86.40;;;;;;4977593;28;20334;-70
2022/11/05 16:12:47;;;;;;;0.20;0.10;;;10.50;86.80;;;;;;4982570;28;20026;-71
2022/11/05 16:15:25;;;;;;;0.40;0.30;;;10.40;86.60;;;;;;4984046;28;20023;-71
2022/11/05 16:18:30;;;;;;;0.00;0.00;;;10.30;87.80;;;;;;4984069;28;20031;-71
2022/11/05 16:24:26;;;;;;;0.00;0.00;;;10.30;87.30;;;;;;4984128;28;20073;-70
2022/11/05 16:27:05;;;;;;;0.00;0.00;;;10.20;87.90;;;;;;4966755;28;20043;-70
2022/11/05 16:32:53;;;;;;;0.10;0.10;;;10.10;89.80;;;;;;4984227;28;20026;-70
2022/11/05 16:35:31;;;;;;;0.10;0.10;;;10.00;89.90;;;;;;4983909;28;20027;-70
2022/11/05 16:38:05;;;;;;;0.22;0.22;;;10.00;90.20;;;;;;4983832;28;20034;-70
2022/11/05 16:44:09;;;;;;;0.22;0.08;;;10.00;87.60;;;;;;4984130;28;20037;-70
2022/11/05 16:46:47;;;;;;;0.00;0.00;;;10.00;88.90;;;;;;4983750;28;20027;-70
2022/11/05 16:52:34;;;;;;;0.10;0.10;;;9.90;87.40;;;;;;4983936;28;20430;-70
2022/11/05 16:55:19;;;;;;;0.00;0.00;;;9.90;87.00;;;;;;4983768;28;20022;-70
2022/11/05 16:57:54;;;;;;;0.00;0.00;;;9.90;86.80;;;;;;4983564;28;20025;-70
2022/11/05 17:07:04;;;;;;;0.00;0.00;;;9.80;88.00;;;;;;4962855;28;20323;-70
2022/11/05 17:13:01;;;;;;;0.00;0.00;;;10.10;84.30;;;;;;4963791;29;20034;-70
2022/11/05 17:15:42;;;;;;;0.10;0.10;;;10.30;86.10;;;;;;4963428;28;20490;-70
2022/11/05 17:18:17;;;;;;;0.00;0.00;;;10.20;85.70;;;;;;4963718;28;20110;-70
2022/11/05 17:24:14;;;;;;;0.00;0.00;;;10.30;84.80;;;;;;4961176;28;20050;-70
2022/11/05 17:26:49;;;;;;;0.13;0.10;;;10.40;82.40;;;;;;4960969;29;20038;-70
2022/11/05 17:32:37;;;;;;;0.20;0.20;;;10.50;82.70;;;;;;4961052;29;20029;-70
2022/11/05 17:35:21;;;;;;;0.00;0.00;;;10.60;82.90;;;;;;4960800;29;20366;-70
2022/11/05 17:37:57;;;;;;;0.00;0.00;;;10.60;82.60;;;;;;4960856;29;20023;-70
2022/11/05 17:43:57;;;;;;;0.85;0.10;;;10.60;82.30;;;;;;4960807;29;20026;-70
2022/11/05 17:46:32;;;;;;;0.00;0.00;;;10.50;82.80;;;;;;4960734;29;20027;-70
2022/11/05 17:52:19;;;;;;;0.00;0.00;;;10.60;80.50;;;;;;4961019;29;20018;-70
2022/11/05 17:54:54;;;;;;;0.00;0.00;;;10.70;81.70;;;;;;4960547;29;20031;-70
2022/11/05 17:57:29;;;;;;;0.00;0.00;;;10.60;81.40;;;;;;4960531;29;20020;-70
2022/11/05 18:00:04;;;;;;;0.25;0.13;;;10.60;79.50;;;;;;4943446;29;20419;-70
2022/11/05 18:02:39;;;;;;;0.10;0.10;;;10.60;80.80;;;;;;4960462;29;20035;-70
2022/11/05 18:05:16;;;;;;;0.15;0.10;;;10.70;78.40;;;;;;4960491;29;20451;-70
2022/11/05 18:08:42;;;;;;;0.00;0.00;;;11.10;75.10;;;;;;4959770;28;20470;-70
2022/11/05 18:11:07;;;;;;;0.00;0.00;;;11.20;77.90;;;;;;4960191;28;20035;-70
2022/11/05 18:13:42;;;;;;;0.10;0.10;;;11.10;77.90;;;;;;4960246;29;20042;-70
2022/11/05 18:16:17;;;;;;;0.98;0.30;;;11.10;76.90;;;;;;4960141;29;20126;-70
2022/11/05 18:18:52;;;;;;;0.00;0.00;;;11.00;76.20;;;;;;4960115;29;20157;-70
2022/11/05 18:21:18;;;;;;;0.10;0.10;;;11.10;77.70;;;;;;4960181;29;20023;-70
2022/11/05 18:24:02;;;;;;;0.00;0.00;;;11.10;76.40;;;;;;4960104;29;20046;-70
2022/11/05 18:26:37;;;;;;;0.00;0.00;;;11.10;75.90;;;;;;4959991;29;20098;-70
2022/11/05 18:29:12;;;;;;;0.10;0.10;;;11.10;76.40;;;;;;4959811;28;20403;-70
2022/11/05 18:31:37;;;;;;;0.00;0.00;;;11.10;73.90;;;;;;4942901;29;20054;-70
2022/11/05 18:34:53;;;;;;;0.00;0.00;;;11.30;70.50;;;;;;4959749;28;20015;-70
2022/11/05 18:37:28;;;;;;;0.20;0.20;;;11.50;68.80;;;;;;4959951;29;20023;-70
2022/11/05 18:40:03;;;;;;;0.00;0.00;;;11.80;67.50;;;;;;4959596;28;20043;-70
2022/11/05 18:42:38;;;;;;;0.10;0.10;;;12.00;65.10;;;;;;4942465;29;20022;-70
2022/11/05 18:45:13;;;;;;;0.00;0.00;;;12.00;68.50;;;;;;4959638;29;20031;-70
2022/11/05 18:47:47;;;;;;;0.00;0.00;;;12.00;68.70;;;;;;4959487;29;20091;-70
2022/11/05 18:50:14;;;;;;;0.00;0.00;;;11.90;67.50;;;;;;4959403;28;20056;-70
2022/11/05 18:52:49;;;;;;;0.00;0.00;;;12.00;65.50;;;;;;4959549;29;20024;-70
2022/11/05 18:55:24;;;;;;;0.00;0.00;;;12.20;65.20;;;;;;4959396;29;20110;-70
2022/11/05 18:57:59;;;;;;;0.00;0.00;;;12.30;63.50;;;;;;4959445;29;20027;-70
2022/11/05 19:00:26;;;;;;;0.00;0.00;;;12.40;64.50;;;;;;4959147;28;20023;-70
2022/11/05 19:03:10;;;;;;;0.00;0.00;;;12.40;66.70;;;;;;4959517;29;20371;-70
2022/11/05 19:05:45;;;;;;;0.00;0.00;;;12.20;66.60;;;;;;4959204;29;20447;-70
2022/11/05 19:09:11;;;;;;;0.00;0.00;;;12.20;63.80;;;;;;4958623;28;20051;-70
2022/11/05 19:11:38;;;;;;;0.20;0.10;;;12.20;64.90;;;;;;4959322;29;20063;-70
2022/11/05 19:14:23;;;;;;;0.00;0.00;;;12.30;63.90;;;;;;4959141;29;20031;-70
2022/11/05 19:16:58;;;;;;;0.00;0.00;;;12.20;64.20;;;;;;4959076;29;20019;-70
2022/11/05 19:19:33;;;;;;;0.00;0.00;;;12.20;64.20;;;;;;4958932;28;20380;-70
2022/11/05 19:21:59;;;;;;;0.00;0.00;;;12.20;63.40;;;;;;4959036;29;20019;-70